Time;durP1;ratioP1;P1;durP2;ratioP2;P2;SDS_P1;SDS_P2;PMS_P1;PMS_P2;Temp;Humidity;BMP_temperature;BMP_pressure;BME280_temperature;BME280_humidity;BME280_pressure;Samples;Min_cycle;Max_cycle;Signal;HPM_P1;HPM_P2
2021/09/08 00:00:26;;;;;;;4.22;2.97;;;;;;;;;;5022324;28;20505;-82
2021/09/08 00:02:52;;;;;;;4.85;3.10;;;;;;;;;;5021826;28;20066;-82
2021/09/08 00:05:19;;;;;;;5.10;3.20;;;;;;;;;;5016507;28;20022;-82
2021/09/08 00:07:45;;;;;;;4.30;2.85;;;;;;;;;;5028525;28;20033;-81
2021/09/08 00:10:12;;;;;;;4.47;2.90;;;;;;;;;;5023777;28;20073;-81
2021/09/08 00:12:39;;;;;;;4.32;2.90;;;;;;;;;;5024434;28;20049;-82
2021/09/08 00:15:06;;;;;;;5.03;3.00;;;;;;;;;;5021751;28;20060;-82
2021/09/08 00:17:33;;;;;;;4.50;3.03;;;;;;;;;;5019282;28;20072;-82
2021/09/08 00:19:59;;;;;;;5.40;3.08;;;;;;;;;;5026699;28;20092;-82
2021/09/08 00:22:26;;;;;;;3.88;2.53;;;;;;;;;;5026512;28;20099;-83
2021/09/08 00:24:52;;;;;;;4.18;2.92;;;;;;;;;;5020889;28;20076;-84
2021/09/08 00:27:19;;;;;;;4.53;2.88;;;;;;;;;;5018762;28;20050;-82
2021/09/08 00:29:45;;;;;;;3.72;2.53;;;;;;;;;;5020489;28;20056;-81
2021/09/08 00:32:11;;;;;;;4.18;2.80;;;;;;;;;;5015036;28;20119;-81
2021/09/08 00:34:38;;;;;;;5.13;3.00;;;;;;;;;;5024574;28;20074;-81
2021/09/08 00:37:04;;;;;;;5.82;2.80;;;;;;;;;;5013983;28;20067;-83
2021/09/08 00:39:31;;;;;;;5.18;3.00;;;;;;;;;;5019841;28;20569;-83
2021/09/08 00:41:57;;;;;;;4.00;3.03;;;;;;;;;;5026313;28;20049;-83
2021/09/08 00:44:25;;;;;;;5.85;3.42;;;;;;;;;;5019691;28;20516;-83
2021/09/08 00:46:51;;;;;;;4.05;3.00;;;;;;;;;;5023282;28;20107;-85
2021/09/08 00:49:18;;;;;;;5.35;3.00;;;;;;;;;;5016779;28;20069;-82
2021/09/08 00:51:45;;;;;;;4.88;3.05;;;;;;;;;;5019172;28;20107;-82
2021/09/08 00:54:14;;;;;;;4.05;2.70;;;;;;;;;;5014527;28;20073;-81
2021/09/08 00:56:42;;;;;;;5.28;3.05;;;;;;;;;;5022296;28;20053;-83
2021/09/08 00:59:08;;;;;;;4.68;2.92;;;;;;;;;;5017528;28;20474;-82
2021/09/08 01:01:34;;;;;;;5.20;3.35;;;;;;;;;;5018835;28;20115;-82
2021/09/08 01:04:01;;;;;;;5.22;3.10;;;;;;;;;;5021436;28;20095;-83
2021/09/08 01:06:27;;;;;;;5.28;2.80;;;;;;;;;;5011554;28;20088;-81
2021/09/08 01:08:54;;;;;;;4.88;3.17;;;;;;;;;;5026055;28;20536;-82
2021/09/08 01:11:21;;;;;;;4.82;3.15;;;;;;;;;;5019749;28;20495;-82
2021/09/08 01:13:47;;;;;;;5.00;2.95;;;;;;;;;;5013827;28;20060;-83
2021/09/08 01:16:14;;;;;;;4.63;2.97;;;;;;;;;;5031456;28;20065;-84
2021/09/08 01:18:40;;;;;;;3.92;2.70;;;;;;;;;;5021518;28;20088;-82
2021/09/08 01:21:06;;;;;;;4.30;2.78;;;;;;;;;;5010600;28;20057;-83
2021/09/08 01:23:33;;;;;;;4.68;2.83;;;;;;;;;;5013712;28;20666;-84
2021/09/08 01:26:03;;;;;;;6.40;3.22;;;;;;;;;;5020401;28;20069;-84
2021/09/08 01:28:30;;;;;;;4.03;2.90;;;;;;;;;;5018178;28;20570;-84
2021/09/08 01:30:57;;;;;;;5.38;3.17;;;;;;;;;;5023468;28;20057;-83
2021/09/08 01:33:23;;;;;;;4.45;2.83;;;;;;;;;;5017226;28;20065;-82
2021/09/08 01:35:50;;;;;;;5.97;3.05;;;;;;;;;;5020128;28;20563;-84
2021/09/08 01:38:17;;;;;;;5.20;3.35;;;;;;;;;;5013553;28;20069;-83
2021/09/08 01:40:44;;;;;;;4.45;2.70;;;;;;;;;;5019523;28;20466;-83
2021/09/08 01:43:11;;;;;;;4.65;3.00;;;;;;;;;;5020413;28;20130;-83
2021/09/08 01:45:41;;;;;;;4.32;2.97;;;;;;;;;;5022989;28;20058;-83
2021/09/08 01:48:08;;;;;;;4.63;2.97;;;;;;;;;;5017314;28;20057;-83
2021/09/08 01:50:35;;;;;;;4.10;2.72;;;;;;;;;;5015734;28;20525;-83
2021/09/08 01:53:01;;;;;;;4.10;2.90;;;;;;;;;;5024906;28;20065;-84
2021/09/08 01:55:28;;;;;;;4.03;2.92;;;;;;;;;;5020408;28;20076;-84
2021/09/08 01:57:54;;;;;;;5.93;3.15;;;;;;;;;;5021051;28;20521;-83
2021/09/08 02:00:20;;;;;;;5.13;3.20;;;;;;;;;;5020640;28;20057;-84
2021/09/08 02:02:47;;;;;;;4.85;3.20;;;;;;;;;;5019922;28;20069;-84
2021/09/08 02:05:15;;;;;;;5.45;3.00;;;;;;;;;;5021715;28;20140;-83
2021/09/08 02:07:41;;;;;;;4.63;2.55;;;;;;;;;;5021017;28;20453;-83
2021/09/08 02:10:08;;;;;;;4.90;2.80;;;;;;;;;;5014258;28;20059;-83
2021/09/08 02:12:34;;;;;;;5.32;3.40;;;;;;;;;;5011898;28;20045;-83
2021/09/08 02:15:00;;;;;;;4.93;2.90;;;;;;;;;;5020399;28;20064;-83
2021/09/08 02:17:27;;;;;;;5.32;3.20;;;;;;;;;;5011029;28;20062;-84
2021/09/08 02:19:54;;;;;;;4.60;3.00;;;;;;;;;;5024646;28;20106;-83
2021/09/08 02:22:20;;;;;;;4.05;2.85;;;;;;;;;;5015855;28;20077;-83
2021/09/08 02:24:46;;;;;;;4.38;2.95;;;;;;;;;;5019048;28;20053;-83
2021/09/08 02:27:13;;;;;;;4.90;2.72;;;;;;;;;;5020500;28;20058;-82
2021/09/08 02:29:39;;;;;;;4.32;2.92;;;;;;;;;;5014916;28;20056;-84
2021/09/08 02:32:06;;;;;;;4.32;2.97;;;;;;;;;;5018422;28;20057;-84
2021/09/08 02:34:32;;;;;;;5.03;2.88;;;;;;;;;;5019825;28;20609;-84
2021/09/08 02:36:59;;;;;;;4.05;2.88;;;;;;;;;;5021317;28;20124;-86
2021/09/08 02:39:25;;;;;;;4.95;3.30;;;;;;;;;;5021799;28;20087;-85
2021/09/08 02:41:52;;;;;;;5.28;3.35;;;;;;;;;;5018057;28;20081;-86
2021/09/08 02:44:18;;;;;;;4.22;2.78;;;;;;;;;;5017391;28;20512;-86
2021/09/08 02:46:45;;;;;;;4.85;3.15;;;;;;;;;;5022234;28;20049;-86
2021/09/08 02:49:11;;;;;;;5.38;3.22;;;;;;;;;;5025030;28;20057;-85
2021/09/08 02:51:38;;;;;;;3.92;2.67;;;;;;;;;;5019019;28;20054;-85
2021/09/08 02:54:04;;;;;;;4.82;3.33;;;;;;;;;;5024553;28;20076;-83
2021/09/08 02:56:30;;;;;;;3.85;2.80;;;;;;;;;;5024479;28;20068;-82
2021/09/08 02:58:57;;;;;;;4.72;3.20;;;;;;;;;;5023145;28;20037;-82
2021/09/08 03:01:23;;;;;;;4.40;2.90;;;;;;;;;;5023354;28;20040;-81
2021/09/08 03:03:50;;;;;;;4.13;2.95;;;;;;;;;;5026938;28;20049;-81
2021/09/08 03:06:16;;;;;;;4.72;3.10;;;;;;;;;;5020778;28;20477;-79
2021/09/08 03:08:42;;;;;;;4.88;2.92;;;;;;;;;;5025548;28;20064;-82
2021/09/08 03:11:09;;;;;;;4.22;2.72;;;;;;;;;;5025053;28;20045;-82
2021/09/08 03:13:35;;;;;;;5.07;2.83;;;;;;;;;;5021284;28;20116;-80
2021/09/08 03:16:02;;;;;;;3.95;3.10;;;;;;;;;;5024121;28;20057;-82
2021/09/08 03:18:28;;;;;;;4.78;3.20;;;;;;;;;;5025865;28;20073;-81
2021/09/08 03:20:55;;;;;;;4.25;3.08;;;;;;;;;;5023697;28;20053;-83
2021/09/08 03:23:21;;;;;;;4.13;2.97;;;;;;;;;;5020842;28;20069;-81
2021/09/08 03:25:47;;;;;;;5.25;3.20;;;;;;;;;;5013102;28;20060;-81
2021/09/08 03:28:14;;;;;;;4.55;3.10;;;;;;;;;;5015801;28;20469;-81
2021/09/08 03:30:40;;;;;;;4.20;3.10;;;;;;;;;;5017937;28;20068;-82
2021/09/08 03:33:07;;;;;;;4.38;2.90;;;;;;;;;;5017848;28;20559;-82
2021/09/08 03:35:33;;;;;;;4.28;3.03;;;;;;;;;;5017211;28;20065;-81
2021/09/08 03:37:59;;;;;;;4.30;2.90;;;;;;;;;;5020086;28;20060;-82
2021/09/08 03:40:26;;;;;;;4.32;3.10;;;;;;;;;;5018011;28;20076;-80
2021/09/08 03:42:52;;;;;;;4.13;2.95;;;;;;;;;;5016878;28;20072;-81
2021/09/08 03:45:19;;;;;;;4.00;2.83;;;;;;;;;;5021972;28;20130;-81
2021/09/08 03:47:45;;;;;;;4.72;3.03;;;;;;;;;;5015833;28;20064;-81
2021/09/08 03:50:12;;;;;;;5.75;3.10;;;;;;;;;;5017974;28;20065;-83
2021/09/08 03:52:39;;;;;;;3.92;2.80;;;;;;;;;;5017271;28;20049;-81
2021/09/08 03:55:05;;;;;;;5.38;3.20;;;;;;;;;;5014673;28;20636;-80
2021/09/08 03:57:32;;;;;;;5.90;3.30;;;;;;;;;;5013815;28;20479;-81
2021/09/08 03:59:58;;;;;;;4.13;2.83;;;;;;;;;;5014345;28;20049;-82
2021/09/08 04:02:25;;;;;;;5.80;3.05;;;;;;;;;;5013800;28;20175;-81
2021/09/08 04:04:51;;;;;;;4.40;3.05;;;;;;;;;;5014098;28;20065;-81
2021/09/08 04:07:17;;;;;;;4.68;3.05;;;;;;;;;;5015813;28;20057;-82
2021/09/08 04:09:44;;;;;;;4.00;2.50;;;;;;;;;;5015059;28;20061;-81
2021/09/08 04:12:10;;;;;;;5.15;3.20;;;;;;;;;;5019066;28;20963;-82
2021/09/08 04:14:36;;;;;;;4.53;3.33;;;;;;;;;;5012255;28;20259;-83
2021/09/08 04:17:03;;;;;;;4.85;3.13;;;;;;;;;;5014264;28;20044;-84
2021/09/08 04:19:30;;;;;;;5.43;3.38;;;;;;;;;;5017010;28;20383;-82
2021/09/08 04:21:56;;;;;;;4.85;2.90;;;;;;;;;;5020946;28;20069;-81
2021/09/08 04:24:22;;;;;;;4.10;2.85;;;;;;;;;;5015235;28;20735;-81
2021/09/08 04:26:49;;;;;;;3.92;2.80;;;;;;;;;;5014739;28;20062;-81
2021/09/08 04:29:15;;;;;;;5.18;3.05;;;;;;;;;;5017338;28;20664;-79
2021/09/08 04:31:42;;;;;;;7.53;3.63;;;;;;;;;;5016953;28;20552;-80
2021/09/08 04:34:08;;;;;;;7.28;3.58;;;;;;;;;;5022396;28;20057;-80
2021/09/08 04:36:35;;;;;;;4.88;3.35;;;;;;;;;;5015401;28;20716;-80
2021/09/08 04:39:02;;;;;;;5.38;3.40;;;;;;;;;;5017105;28;20115;-80
2021/09/08 04:41:29;;;;;;;6.38;3.60;;;;;;;;;;5010713;28;20064;-80
2021/09/08 04:43:56;;;;;;;6.80;3.22;;;;;;;;;;5014455;28;20038;-81
2021/09/08 04:46:22;;;;;;;6.35;3.45;;;;;;;;;;5014876;28;20549;-80
2021/09/08 04:48:48;;;;;;;5.75;3.60;;;;;;;;;;5013796;28;20053;-79
2021/09/08 04:51:15;;;;;;;4.63;3.40;;;;;;;;;;5014451;28;20494;-80
2021/09/08 04:53:41;;;;;;;5.35;3.30;;;;;;;;;;5018313;28;20695;-79
2021/09/08 04:56:08;;;;;;;5.43;3.35;;;;;;;;;;5020855;28;20064;-80
2021/09/08 04:58:35;;;;;;;4.80;3.33;;;;;;;;;;5013995;28;20050;-79
2021/09/08 05:01:01;;;;;;;6.97;3.65;;;;;;;;;;5025195;28;20512;-79
2021/09/08 05:03:27;;;;;;;6.13;3.13;;;;;;;;;;5015633;28;20149;-80
2021/09/08 05:05:54;;;;;;;5.95;2.97;;;;;;;;;;5015592;28;20057;-80
2021/09/08 05:08:20;;;;;;;5.68;3.10;;;;;;;;;;5014297;28;20583;-80
2021/09/08 05:10:47;;;;;;;5.35;3.30;;;;;;;;;;5024457;28;20064;-80
2021/09/08 05:13:13;;;;;;;5.35;3.20;;;;;;;;;;5007023;28;20041;-80
2021/09/08 05:15:39;;;;;;;5.40;3.40;;;;;;;;;;5024270;28;20059;-80
2021/09/08 05:18:06;;;;;;;5.25;3.15;;;;;;;;;;5014686;28;20049;-80
2021/09/08 05:20:32;;;;;;;5.45;3.58;;;;;;;;;;5011844;28;20135;-80
2021/09/08 05:22:58;;;;;;;5.80;3.38;;;;;;;;;;5011573;28;20060;-82
2021/09/08 05:25:25;;;;;;;5.05;3.05;;;;;;;;;;5010433;28;20075;-82
2021/09/08 05:27:51;;;;;;;6.20;3.30;;;;;;;;;;5018282;28;20087;-83
2021/09/08 05:30:18;;;;;;;4.95;3.03;;;;;;;;;;5014962;28;20160;-82
2021/09/08 05:32:44;;;;;;;5.13;3.20;;;;;;;;;;5017602;28;20438;-84
2021/09/08 05:35:12;;;;;;;5.63;3.47;;;;;;;;;;5018512;28;20034;-82
2021/09/08 05:37:39;;;;;;;5.20;3.40;;;;;;;;;;5011570;28;21233;-82
2021/09/08 05:40:07;;;;;;;15.75;3.97;;;;;;;;;;5011222;28;20069;-82
2021/09/08 05:42:33;;;;;;;4.78;3.13;;;;;;;;;;5011102;28;20062;-82
2021/09/08 05:45:00;;;;;;;7.07;3.05;;;;;;;;;;5015594;28;20138;-82
2021/09/08 05:47:26;;;;;;;4.32;3.13;;;;;;;;;;5017957;28;20069;-82
2021/09/08 05:49:53;;;;;;;5.70;3.03;;;;;;;;;;5016007;28;20064;-82
2021/09/08 05:52:19;;;;;;;6.05;3.05;;;;;;;;;;5010754;28;20076;-82
2021/09/08 05:54:45;;;;;;;6.10;3.22;;;;;;;;;;5013319;28;20065;-83
2021/09/08 05:57:12;;;;;;;6.03;3.35;;;;;;;;;;5012364;28;20046;-81
2021/09/08 05:59:38;;;;;;;6.15;3.28;;;;;;;;;;5018374;28;20095;-83
2021/09/08 06:02:04;;;;;;;5.95;3.33;;;;;;;;;;5017232;28;20059;-84
2021/09/08 06:04:31;;;;;;;6.63;3.20;;;;;;;;;;5010150;28;20069;-83
2021/09/08 06:06:58;;;;;;;7.55;3.38;;;;;;;;;;5013194;28;20133;-82
2021/09/08 06:09:24;;;;;;;4.68;3.22;;;;;;;;;;5011917;28;20463;-82
2021/09/08 06:11:51;;;;;;;7.97;3.25;;;;;;;;;;5017903;28;20054;-83
2021/09/08 06:14:17;;;;;;;7.35;3.28;;;;;;;;;;5018462;28;20061;-82
2021/09/08 06:16:44;;;;;;;4.38;2.88;;;;;;;;;;5025224;28;20053;-81
2021/09/08 06:19:10;;;;;;;5.72;3.28;;;;;;;;;;5019236;28;20513;-82
2021/09/08 06:21:37;;;;;;;5.70;3.35;;;;;;;;;;4995135;28;21463;-84
2021/09/08 06:24:04;;;;;;;4.72;3.08;;;;;;;;;;5005314;28;20061;-82
2021/09/08 06:26:30;;;;;;;4.38;3.13;;;;;;;;;;5005665;28;20038;-83
2021/09/08 06:28:56;;;;;;;4.32;3.10;;;;;;;;;;4998899;28;20066;-83
2021/09/08 06:31:23;;;;;;;5.15;3.38;;;;;;;;;;4996866;28;20058;-83
2021/09/08 06:33:50;;;;;;;7.78;3.10;;;;;;;;;;5005823;28;20069;-83
2021/09/08 06:36:17;;;;;;;4.78;2.80;;;;;;;;;;5000432;28;20143;-83
2021/09/08 06:38:44;;;;;;;4.80;3.15;;;;;;;;;;5006789;28;20049;-83
2021/09/08 06:41:11;;;;;;;5.20;3.10;;;;;;;;;;5018929;28;20060;-82
2021/09/08 06:43:37;;;;;;;5.15;3.15;;;;;;;;;;5013787;28;20120;-82
2021/09/08 06:46:04;;;;;;;5.40;2.83;;;;;;;;;;5024446;28;20049;-84
2021/09/08 06:48:30;;;;;;;5.13;2.75;;;;;;;;;;5017253;28;20083;-84
2021/09/08 06:50:56;;;;;;;3.88;2.80;;;;;;;;;;5021951;28;20060;-82
2021/09/08 06:53:23;;;;;;;3.58;2.85;;;;;;;;;;5015274;28;20506;-82
2021/09/08 06:55:49;;;;;;;5.70;3.03;;;;;;;;;;5021625;28;20057;-82
2021/09/08 06:58:16;;;;;;;4.03;2.78;;;;;;;;;;5018591;28;20061;-83
2021/09/08 07:00:42;;;;;;;4.75;2.85;;;;;;;;;;5021794;28;20101;-83
2021/09/08 07:03:08;;;;;;;5.63;3.20;;;;;;;;;;5017832;28;20081;-83
2021/09/08 07:05:35;;;;;;;5.50;3.08;;;;;;;;;;5023979;28;20658;-83
2021/09/08 07:08:05;;;;;;;6.05;3.40;;;;;;;;;;5012926;28;20074;-84
2021/09/08 07:10:32;;;;;;;4.40;2.72;;;;;;;;;;5027709;28;20025;-83
2021/09/08 07:12:58;;;;;;;5.90;2.97;;;;;;;;;;5029202;28;20541;-84
2021/09/08 07:15:25;;;;;;;5.47;2.97;;;;;;;;;;5023315;28;20089;-84
2021/09/08 07:17:51;;;;;;;4.47;3.15;;;;;;;;;;5024977;28;20470;-84
2021/09/08 07:20:17;;;;;;;4.22;2.85;;;;;;;;;;5014553;28;20064;-84
2021/09/08 07:22:44;;;;;;;3.80;2.65;;;;;;;;;;5021912;28;20065;-83
2021/09/08 07:25:10;;;;;;;4.95;2.70;;;;;;;;;;5038612;28;20072;-83
2021/09/08 07:27:37;;;;;;;5.05;2.83;;;;;;;;;;5015402;28;20053;-83
2021/09/08 07:30:03;;;;;;;4.45;3.13;;;;;;;;;;5020700;28;20060;-81
2021/09/08 07:32:30;;;;;;;4.43;3.22;;;;;;;;;;5023220;28;20056;-83
2021/09/08 07:34:58;;;;;;;3.78;2.80;;;;;;;;;;5035988;28;20065;-83
2021/09/08 07:37:25;;;;;;;4.15;2.85;;;;;;;;;;5029721;28;20087;-85
2021/09/08 07:39:51;;;;;;;5.00;3.08;;;;;;;;;;5022321;28;20120;-84
2021/09/08 07:42:18;;;;;;;4.68;2.97;;;;;;;;;;5023234;28;20096;-82
2021/09/08 07:44:44;;;;;;;5.50;3.13;;;;;;;;;;5020770;28;20423;-83
2021/09/08 07:47:11;;;;;;;4.05;2.70;;;;;;;;;;5024088;28;20057;-84
2021/09/08 07:49:38;;;;;;;3.83;2.95;;;;;;;;;;5016787;28;20336;-84
2021/09/08 07:52:04;;;;;;;4.22;3.03;;;;;;;;;;5016530;28;20057;-84
2021/09/08 07:54:31;;;;;;;4.53;3.13;;;;;;;;;;5018862;28;20065;-84
2021/09/08 07:56:57;;;;;;;5.80;3.10;;;;;;;;;;5023067;28;20068;-83
2021/09/08 07:59:24;;;;;;;3.60;2.80;;;;;;;;;;5016815;28;20060;-83
2021/09/08 08:01:50;;;;;;;5.95;3.50;;;;;;;;;;5020630;28;20065;-82
2021/09/08 08:04:18;;;;;;;3.90;2.92;;;;;;;;;;5016706;28;20414;-82
2021/09/08 08:06:44;;;;;;;4.30;2.85;;;;;;;;;;5019429;28;20065;-84
2021/09/08 08:09:11;;;;;;;5.53;2.90;;;;;;;;;;5020861;28;20688;-82
2021/09/08 08:11:37;;;;;;;4.63;3.08;;;;;;;;;;5016905;28;20205;-84
2021/09/08 08:14:03;;;;;;;4.32;2.92;;;;;;;;;;5017280;28;20418;-83
2021/09/08 08:16:31;;;;;;;4.40;3.03;;;;;;;;;;5013374;28;20049;-83
2021/09/08 08:18:58;;;;;;;4.13;3.00;;;;;;;;;;5018500;28;20053;-84
2021/09/08 08:21:24;;;;;;;4.00;3.10;;;;;;;;;;5020483;28;20054;-83
2021/09/08 08:23:52;;;;;;;4.32;2.83;;;;;;;;;;5017564;28;20100;-83
2021/09/08 08:26:21;;;;;;;4.57;3.00;;;;;;;;;;5013695;28;20080;-83
2021/09/08 08:28:47;;;;;;;5.05;3.17;;;;;;;;;;5019889;28;20060;-83
2021/09/08 08:31:13;;;;;;;5.32;2.80;;;;;;;;;;5018420;28;20562;-81
2021/09/08 08:33:40;;;;;;;5.03;3.10;;;;;;;;;;5014489;28;20065;-83
2021/09/08 08:36:06;;;;;;;4.25;2.88;;;;;;;;;;5021245;28;20057;-84
2021/09/08 08:38:33;;;;;;;4.32;2.78;;;;;;;;;;5020521;28;20065;-84
2021/09/08 08:40:59;;;;;;;4.18;2.95;;;;;;;;;;5022718;28;20072;-84
2021/09/08 08:43:26;;;;;;;5.15;3.00;;;;;;;;;;5012389;28;20069;-86
2021/09/08 08:45:52;;;;;;;4.28;3.00;;;;;;;;;;5025906;28;20128;-83
2021/09/08 08:48:43;;;;;;;5.10;2.80;;;;;;;;;;5020441;28;20064;-83
2021/09/08 08:51:15;;;;;;;5.15;3.47;;;;;;;;;;5011607;28;20497;-81
2021/09/08 08:53:42;;;;;;;4.82;2.78;;;;;;;;;;5018804;28;20489;-83
2021/09/08 08:56:08;;;;;;;3.60;2.90;;;;;;;;;;5021816;28;20061;-82
2021/09/08 08:58:34;;;;;;;5.05;3.47;;;;;;;;;;5011496;28;20123;-83
2021/09/08 09:01:33;;;;;;;4.55;3.10;;;;;;;;;;5016305;28;20037;-84
2021/09/08 09:04:07;;;;;;;4.65;2.90;;;;;;;;;;5012195;28;22388;-83
2021/09/08 09:06:42;;;;;;;3.53;2.63;;;;;;;;;;5024328;28;20752;-84
2021/09/08 09:09:08;;;;;;;4.13;3.10;;;;;;;;;;5019217;28;20053;-83
2021/09/08 09:11:35;;;;;;;4.55;3.13;;;;;;;;;;5015531;28;20053;-85
2021/09/08 09:14:06;;;;;;;4.65;2.92;;;;;;;;;;5015622;28;20053;-84
2021/09/08 09:16:35;;;;;;;4.78;3.33;;;;;;;;;;5017928;28;20746;-83
2021/09/08 09:19:02;;;;;;;5.75;2.72;;;;;;;;;;5021342;28;20059;-84
2021/09/08 09:21:28;;;;;;;4.55;3.25;;;;;;;;;;5014293;28;20124;-83
2021/09/08 09:23:56;;;;;;;4.90;3.30;;;;;;;;;;5016582;28;20066;-83
2021/09/08 09:26:23;;;;;;;6.40;3.22;;;;;;;;;;5017201;28;20045;-83
2021/09/08 09:28:50;;;;;;;5.55;3.20;;;;;;;;;;5015193;28;20381;-85
2021/09/08 09:31:18;;;;;;;5.18;3.38;;;;;;;;;;5024396;28;20057;-81
2021/09/08 09:33:46;;;;;;;3.70;2.60;;;;;;;;;;5015718;28;20065;-84
2021/09/08 09:36:19;;;;;;;4.25;2.80;;;;;;;;;;5014365;28;20108;-83
2021/09/08 09:38:47;;;;;;;4.57;3.08;;;;;;;;;;5016089;28;21182;-82
2021/09/08 09:41:14;;;;;;;4.57;3.15;;;;;;;;;;5013568;28;20119;-82
2021/09/08 09:43:43;;;;;;;4.45;3.28;;;;;;;;;;5014606;28;20077;-84
2021/09/08 09:46:10;;;;;;;4.82;3.00;;;;;;;;;;5024582;28;20132;-84
2021/09/08 09:48:38;;;;;;;5.10;3.00;;;;;;;;;;5012629;28;20054;-83
2021/09/08 09:51:05;;;;;;;4.40;2.85;;;;;;;;;;5018254;28;20363;-84
2021/09/08 09:53:32;;;;;;;4.43;3.05;;;;;;;;;;5011357;28;20443;-84
2021/09/08 09:55:59;;;;;;;5.07;3.25;;;;;;;;;;5017241;28;20198;-84
2021/09/08 09:58:25;;;;;;;6.03;3.50;;;;;;;;;;5025293;28;20064;-84
2021/09/08 10:00:52;;;;;;;4.63;2.92;;;;;;;;;;5033788;28;20607;-83
2021/09/08 10:03:20;;;;;;;5.10;3.25;;;;;;;;;;5018196;28;20072;-82
2021/09/08 10:05:46;;;;;;;4.70;3.20;;;;;;;;;;5014041;28;20065;-85
2021/09/08 10:08:15;;;;;;;7.10;3.65;;;;;;;;;;5016248;28;20456;-83
2021/09/08 10:10:44;;;;;;;4.68;3.10;;;;;;;;;;5030575;28;20045;-85
2021/09/08 10:13:26;;;;;;;3.45;2.60;;;;;;;;;;5015017;28;20615;-84
2021/09/08 10:15:53;;;;;;;4.38;3.15;;;;;;;;;;5014370;28;20034;-84
2021/09/08 10:18:22;;;;;;;4.65;3.28;;;;;;;;;;5021981;28;20537;-84
2021/09/08 10:20:52;;;;;;;5.25;3.20;;;;;;;;;;5021069;28;20065;-82
2021/09/08 10:23:19;;;;;;;4.47;3.33;;;;;;;;;;5009380;28;20336;-84
2021/09/08 10:25:48;;;;;;;4.50;2.90;;;;;;;;;;5024633;28;20061;-83
2021/09/08 10:28:16;;;;;;;4.93;3.20;;;;;;;;;;5020926;28;20065;-84
2021/09/08 10:30:43;;;;;;;4.88;3.50;;;;;;;;;;5024775;28;20139;-83
2021/09/08 10:33:09;;;;;;;4.43;3.08;;;;;;;;;;5014662;28;20139;-83
2021/09/08 10:35:38;;;;;;;4.97;3.30;;;;;;;;;;5023222;28;20061;-82
2021/09/08 10:38:10;;;;;;;3.70;2.85;;;;;;;;;;5028680;28;20068;-84
2021/09/08 10:40:37;;;;;;;4.05;2.75;;;;;;;;;;5014139;28;20586;-83
2021/09/08 10:43:04;;;;;;;5.32;3.08;;;;;;;;;;5018164;28;20065;-82
2021/09/08 10:45:31;;;;;;;4.45;3.20;;;;;;;;;;5001386;28;20069;-83
2021/09/08 10:47:59;;;;;;;4.35;3.20;;;;;;;;;;5019604;28;20065;-84
2021/09/08 10:50:35;;;;;;;4.95;2.88;;;;;;;;;;5019018;28;20080;-84
2021/09/08 10:53:04;;;;;;;4.90;3.40;;;;;;;;;;5019229;28;20065;-82
2021/09/08 10:55:43;;;;;;;4.30;3.00;;;;;;;;;;5012983;28;20053;-81
2021/09/08 10:58:10;;;;;;;4.97;3.35;;;;;;;;;;5015438;28;20033;-82
2021/09/08 11:00:38;;;;;;;6.40;3.30;;;;;;;;;;5012682;28;20069;-84
2021/09/08 11:03:06;;;;;;;5.68;3.28;;;;;;;;;;5020807;28;20107;-85
2021/09/08 11:05:45;;;;;;;5.22;3.20;;;;;;;;;;5024283;28;25129;-84
2021/09/08 11:08:19;;;;;;;4.75;3.53;;;;;;;;;;5025330;28;20054;-84
2021/09/08 11:10:46;;;;;;;7.43;3.50;;;;;;;;;;5018034;28;22280;-83
2021/09/08 11:13:12;;;;;;;5.22;3.58;;;;;;;;;;5025364;28;20052;-84
2021/09/08 11:15:39;;;;;;;5.85;3.53;;;;;;;;;;5010267;28;20108;-85
2021/09/08 11:18:10;;;;;;;7.00;3.78;;;;;;;;;;4997238;28;20536;-83
2021/09/08 11:20:37;;;;;;;;;;;;;;;;;;5003236;28;20092;-83
2021/09/08 11:23:13;;;;;;;4.80;3.58;;;;;;;;;;4983723;28;19976;-84
2021/09/08 11:25:41;;;;;;;5.18;3.35;;;;;;;;;;4997419;28;20102;-84
2021/09/08 11:28:07;;;;;;;6.63;3.72;;;;;;;;;;4998911;28;20069;-84
2021/09/08 11:30:35;;;;;;;4.97;3.42;;;;;;;;;;4996926;28;20104;-84
2021/09/08 11:33:06;;;;;;;4.90;3.58;;;;;;;;;;4994487;28;20497;-84
2021/09/08 11:35:37;;;;;;;5.40;3.75;;;;;;;;;;4994835;28;20073;-85
2021/09/08 11:38:17;;;;;;;5.32;3.67;;;;;;;;;;4994634;28;20055;-84
2021/09/08 11:40:47;;;;;;;6.47;4.07;;;;;;;;;;4994784;28;21200;-84
2021/09/08 11:43:14;;;;;;;5.33;3.57;;;;;;;;;;4992958;28;20089;-83
2021/09/08 11:45:40;;;;;;;4.90;3.42;;;;;;;;;;4999577;28;20073;-84
2021/09/08 11:48:07;;;;;;;5.15;3.50;;;;;;;;;;4993541;28;20065;-83
2021/09/08 11:50:33;;;;;;;4.93;3.50;;;;;;;;;;5001765;28;20061;-84
2021/09/08 11:53:01;;;;;;;5.07;3.67;;;;;;;;;;4995596;28;20563;-84
2021/09/08 11:55:31;;;;;;;7.85;5.63;;;;;;;;;;5000775;28;20070;-83
2021/09/08 11:58:20;;;;;;;22.08;12.68;;;;;;;;;;5007080;28;20073;-87
2021/09/08 12:01:13;;;;;;;18.73;11.90;;;;;;;;;;5030881;28;20385;-86
2021/09/08 12:03:40;;;;;;;28.20;16.15;;;;;;;;;;5025904;28;20304;-83
2021/09/08 12:06:33;;;;;;;24.73;13.80;;;;;;;;;;5020680;28;20061;-83
2021/09/08 12:09:12;;;;;;;32.65;18.67;;;;;;;;;;5018206;28;20439;-83
2021/09/08 12:11:40;;;;;;;29.75;18.00;;;;;;;;;;5014456;28;20061;-85
2021/09/08 12:14:25;;;;;;;27.17;16.83;;;;;;;;;;5026415;28;20555;-83
2021/09/08 12:16:59;;;;;;;39.15;21.67;;;;;;;;;;5031046;28;22348;-83
2021/09/08 12:19:27;;;;;;;34.30;19.85;;;;;;;;;;5032214;28;20057;-83
2021/09/08 12:22:02;;;;;;;36.42;21.42;;;;;;;;;;5013790;28;20656;-83
2021/09/08 12:24:30;;;;;;;36.28;19.23;;;;;;;;;;5024965;28;20065;-84
2021/09/08 12:26:56;;;;;;;38.47;21.50;;;;;;;;;;5027741;28;20110;-82
2021/09/08 12:29:23;;;;;;;35.58;19.98;;;;;;;;;;5026650;28;20069;-83
2021/09/08 12:32:00;;;;;;;37.38;19.67;;;;;;;;;;5020238;28;20053;-84
2021/09/08 12:34:44;;;;;;;38.28;20.80;;;;;;;;;;5027986;28;20114;-84
2021/09/08 12:37:11;;;;;;;34.17;18.55;;;;;;;;;;5029711;28;20126;-84
2021/09/08 12:39:44;;;;;;;32.88;18.55;;;;;;;;;;5026812;28;20061;-84
2021/09/08 12:42:21;;;;;;;37.78;20.30;;;;;;;;;;5020826;28;20069;-83
2021/09/08 12:44:48;;;;;;;33.92;19.90;;;;;;;;;;5018124;28;20432;-84
2021/09/08 12:47:16;;;;;;;34.67;18.25;;;;;;;;;;5020143;28;20122;-82
2021/09/08 12:49:43;;;;;;;40.45;21.50;;;;;;;;;;5015823;28;20529;-83
2021/09/08 12:52:13;;;;;;;37.05;20.30;;;;;;;;;;5021201;28;20034;-82
2021/09/08 12:54:40;;;;;;;37.42;19.90;;;;;;;;;;4995338;28;21373;-83
2021/09/08 12:57:07;;;;;;;37.80;20.40;;;;;;;;;;4998364;28;20050;-83
2021/09/08 12:59:35;;;;;;;36.78;17.80;;;;;;;;;;5010456;28;20069;-82
2021/09/08 13:02:02;;;;;;;32.70;19.50;;;;;;;;;;5008706;28;20053;-82
2021/09/08 13:04:29;;;;;;;41.60;21.80;;;;;;;;;;5005452;28;20062;-82
2021/09/08 13:06:55;;;;;;;34.60;18.95;;;;;;;;;;5006052;28;20132;-82
2021/09/08 13:09:22;;;;;;;37.45;20.90;;;;;;;;;;5002764;28;20510;-81
2021/09/08 13:11:48;;;;;;;41.00;20.80;;;;;;;;;;4997980;28;20042;-82
2021/09/08 13:14:15;;;;;;;39.78;21.80;;;;;;;;;;4999073;28;20104;-83
2021/09/08 13:16:42;;;;;;;39.65;20.90;;;;;;;;;;5006713;28;20057;-83
2021/09/08 13:19:09;;;;;;;40.08;22.33;;;;;;;;;;5005821;28;20063;-84
2021/09/08 13:21:37;;;;;;;35.83;20.10;;;;;;;;;;5011227;28;20061;-83
2021/09/08 13:24:04;;;;;;;43.42;21.73;;;;;;;;;;4998346;28;20072;-82
2021/09/08 13:26:30;;;;;;;44.13;20.92;;;;;;;;;;4994125;28;20514;-83
2021/09/08 13:28:57;;;;;;;41.17;20.80;;;;;;;;;;5004197;28;20064;-83
2021/09/08 13:31:25;;;;;;;42.17;21.38;;;;;;;;;;4997897;28;20080;-84
2021/09/08 13:33:51;;;;;;;42.33;21.80;;;;;;;;;;4997945;28;20065;-84
2021/09/08 13:36:18;;;;;;;45.65;22.17;;;;;;;;;;4999806;28;20069;-83
2021/09/08 13:38:44;;;;;;;38.65;20.73;;;;;;;;;;5014694;28;20065;-83
2021/09/08 13:41:11;;;;;;;39.15;21.60;;;;;;;;;;4993308;28;20148;-84
2021/09/08 13:43:38;;;;;;;43.00;21.67;;;;;;;;;;5013307;28;20061;-84
2021/09/08 13:46:05;;;;;;;43.55;22.15;;;;;;;;;;4992867;28;20081;-85
2021/09/08 13:48:32;;;;;;;40.40;21.10;;;;;;;;;;4993642;28;20185;-84
2021/09/08 13:50:58;;;;;;;39.03;21.58;;;;;;;;;;5001538;28;20061;-83
2021/09/08 13:53:25;;;;;;;41.55;22.33;;;;;;;;;;4995512;28;20092;-83
2021/09/08 13:55:51;;;;;;;38.58;20.88;;;;;;;;;;4997774;28;20062;-82
2021/09/08 13:58:18;;;;;;;41.97;20.63;;;;;;;;;;4996067;28;20058;-84
2021/09/08 14:00:44;;;;;;;40.03;21.15;;;;;;;;;;5009885;28;20114;-85
2021/09/08 14:03:10;;;;;;;39.00;20.05;;;;;;;;;;5002329;28;20513;-84
2021/09/08 14:05:37;;;;;;;39.78;19.92;;;;;;;;;;5006692;28;20509;-85
2021/09/08 14:08:03;;;;;;;45.60;23.27;;;;;;;;;;5000021;28;20062;-83
2021/09/08 14:10:30;;;;;;;39.58;21.52;;;;;;;;;;4994124;28;20093;-84
2021/09/08 14:12:57;;;;;;;45.15;22.30;;;;;;;;;;5002704;28;20454;-82
2021/09/08 14:15:23;;;;;;;40.80;21.25;;;;;;;;;;5008576;28;20547;-84
2021/09/08 14:17:49;;;;;;;40.88;21.73;;;;;;;;;;5000876;28;20069;-83
2021/09/08 14:20:16;;;;;;;42.35;20.80;;;;;;;;;;4999383;28;20108;-82
2021/09/08 14:22:43;;;;;;;42.80;22.42;;;;;;;;;;5013092;28;20063;-84
2021/09/08 14:25:10;;;;;;;45.20;23.05;;;;;;;;;;5021678;28;20122;-84
2021/09/08 14:27:36;;;;;;;44.28;23.45;;;;;;;;;;5022369;28;20098;-85
2021/09/08 14:30:03;;;;;;;43.15;23.02;;;;;;;;;;5022194;28;20057;-84
2021/09/08 14:32:30;;;;;;;45.80;23.10;;;;;;;;;;5022943;28;20066;-83
2021/09/08 14:34:57;;;;;;;47.88;23.75;;;;;;;;;;5023796;28;20453;-84
2021/09/08 14:37:23;;;;;;;47.83;23.73;;;;;;;;;;5026763;28;20057;-83
2021/09/08 14:39:50;;;;;;;42.72;23.25;;;;;;;;;;5019670;28;20034;-84